Urb Valles de Manati, Puerto Rico
Current Conditions -  °F | °C
As of 5:56 PM on Thursday 25 Dec 2014 (Local Time) from TJSJ Reporting Station
Scattered Clouds Scattered Clouds  
Wind Chill: 80°   Ceiling: Unl
Heat Index: 84°   Visibility: 10mi
Dew Point: 71°   Wind: 15mph
Humidity: 74%   Direction: 50°NE
Pressure: 30.05"   Gusts: NA
Location:  18.4259°N, 66.4717°W
Report Text: TJSJ 252156Z 05013KT 10SM SCT026 SCT035 SCT055 27/22 A3005 RMK AO2 SLP174 SHRA DSNT SW T02670217
Loading
Personal Weather Stations






























Interactive Weather Map New forecast layout! Learn more

10-Day Weather Forecast

Advertisements
Track Severe Weather on mobile